sensor_id;sensor_type;location;lat;lon;timestamp;P1;durP1;ratioP1;P2;durP2;ratioP2
19251;SDS011;9760;50.944;5.304;2022-12-11T00:02:02;48.10;;;15.93;;
19251;SDS011;9760;50.944;5.304;2022-12-11T00:04:29;47.97;;;15.70;;
19251;SDS011;9760;50.944;5.304;2022-12-11T00:06:55;52.77;;;15.10;;
19251;SDS011;9760;50.944;5.304;2022-12-11T00:09:21;50.33;;;15.37;;
19251;SDS011;9760;50.944;5.304;2022-12-11T00:11:46;52.10;;;15.87;;
19251;SDS011;9760;50.944;5.304;2022-12-11T00:14:13;43.30;;;15.63;;
19251;SDS011;9760;50.944;5.304;2022-12-11T00:16:39;48.63;;;14.40;;
19251;SDS011;9760;50.944;5.304;2022-12-11T00:19:06;46.23;;;14.50;;
19251;SDS011;9760;50.944;5.304;2022-12-11T00:21:32;46.17;;;14.37;;
19251;SDS011;9760;50.944;5.304;2022-12-11T00:23:58;47.50;;;14.83;;
19251;SDS011;9760;50.944;5.304;2022-12-11T00:26:24;44.23;;;13.27;;
19251;SDS011;9760;50.944;5.304;2022-12-11T00:28:54;44.67;;;13.80;;
19251;SDS011;9760;50.944;5.304;2022-12-11T00:31:20;48.67;;;13.77;;
19251;SDS011;9760;50.944;5.304;2022-12-11T00:33:47;46.60;;;14.73;;
19251;SDS011;9760;50.944;5.304;2022-12-11T00:36:14;44.17;;;14.10;;
19251;SDS011;9760;50.944;5.304;2022-12-11T00:38:48;48.53;;;13.93;;
19251;SDS011;9760;50.944;5.304;2022-12-11T00:41:14;43.57;;;13.03;;
19251;SDS011;9760;50.944;5.304;2022-12-11T00:43:40;45.00;;;13.67;;
19251;SDS011;9760;50.944;5.304;2022-12-11T00:46:06;46.83;;;14.13;;
19251;SDS011;9760;50.944;5.304;2022-12-11T00:48:31;45.63;;;14.27;;
19251;SDS011;9760;50.944;5.304;2022-12-11T00:50:57;45.60;;;13.93;;
19251;SDS011;9760;50.944;5.304;2022-12-11T00:53:23;40.40;;;12.63;;
19251;SDS011;9760;50.944;5.304;2022-12-11T00:55:49;50.53;;;15.10;;
19251;SDS011;9760;50.944;5.304;2022-12-11T00:58:14;46.90;;;14.07;;
19251;SDS011;9760;50.944;5.304;2022-12-11T01:00:41;39.67;;;13.53;;
19251;SDS011;9760;50.944;5.304;2022-12-11T01:03:07;41.70;;;13.33;;
19251;SDS011;9760;50.944;5.304;2022-12-11T01:05:34;39.47;;;13.17;;
19251;SDS011;9760;50.944;5.304;2022-12-11T01:07:59;43.43;;;13.50;;
19251;SDS011;9760;50.944;5.304;2022-12-11T01:10:25;40.90;;;13.97;;
19251;SDS011;9760;50.944;5.304;2022-12-11T01:15:22;42.13;;;13.90;;
19251;SDS011;9760;50.944;5.304;2022-12-11T01:17:50;36.57;;;12.50;;
19251;SDS011;9760;50.944;5.304;2022-12-11T01:20:16;40.10;;;13.33;;
19251;SDS011;9760;50.944;5.304;2022-12-11T01:22:43;43.13;;;13.77;;
19251;SDS011;9760;50.944;5.304;2022-12-11T01:25:09;43.90;;;13.23;;
19251;SDS011;9760;50.944;5.304;2022-12-11T01:27:35;41.77;;;13.20;;
19251;SDS011;9760;50.944;5.304;2022-12-11T01:30:03;46.93;;;13.13;;
19251;SDS011;9760;50.944;5.304;2022-12-11T01:32:31;41.03;;;13.07;;
19251;SDS011;9760;50.944;5.304;2022-12-11T01:34:57;40.50;;;12.37;;
19251;SDS011;9760;50.944;5.304;2022-12-11T01:37:22;33.40;;;12.47;;
19251;SDS011;9760;50.944;5.304;2022-12-11T01:39:48;40.07;;;13.43;;
19251;SDS011;9760;50.944;5.304;2022-12-11T01:42:17;42.33;;;13.27;;
19251;SDS011;9760;50.944;5.304;2022-12-11T01:47:09;40.83;;;13.53;;
19251;SDS011;9760;50.944;5.304;2022-12-11T01:49:35;35.87;;;11.53;;
19251;SDS011;9760;50.944;5.304;2022-12-11T01:52:17;37.30;;;12.73;;
19251;SDS011;9760;50.944;5.304;2022-12-11T01:54:45;39.33;;;12.77;;
19251;SDS011;9760;50.944;5.304;2022-12-11T01:57:12;43.97;;;13.17;;
19251;SDS011;9760;50.944;5.304;2022-12-11T01:59:38;36.70;;;12.57;;
19251;SDS011;9760;50.944;5.304;2022-12-11T02:04:44;37.03;;;12.63;;
19251;SDS011;9760;50.944;5.304;2022-12-11T02:07:11;36.67;;;12.10;;
19251;SDS011;9760;50.944;5.304;2022-12-11T02:09:37;34.97;;;11.60;;
19251;SDS011;9760;50.944;5.304;2022-12-11T02:29:14;33.80;;;12.83;;
19251;SDS011;9760;50.944;5.304;2022-12-11T02:31:40;38.17;;;12.30;;
19251;SDS011;9760;50.944;5.304;2022-12-11T02:34:48;33.77;;;11.57;;
19251;SDS011;9760;50.944;5.304;2022-12-11T02:37:08;36.70;;;12.40;;
19251;SDS011;9760;50.944;5.304;2022-12-11T02:39:39;31.73;;;10.47;;
19251;SDS011;9760;50.944;5.304;2022-12-11T02:42:07;37.60;;;11.37;;
19251;SDS011;9760;50.944;5.304;2022-12-11T02:44:35;33.53;;;11.97;;
19251;SDS011;9760;50.944;5.304;2022-12-11T02:47:02;32.40;;;11.40;;
19251;SDS011;9760;50.944;5.304;2022-12-11T02:49:30;37.47;;;12.87;;
19251;SDS011;9760;50.944;5.304;2022-12-11T02:51:58;28.27;;;10.30;;
19251;SDS011;9760;50.944;5.304;2022-12-11T02:54:29;35.97;;;11.37;;
19251;SDS011;9760;50.944;5.304;2022-12-11T02:57:02;33.43;;;12.23;;
19251;SDS011;9760;50.944;5.304;2022-12-11T02:59:35;37.40;;;12.67;;
19251;SDS011;9760;50.944;5.304;2022-12-11T03:02:03;33.13;;;10.53;;
19251;SDS011;9760;50.944;5.304;2022-12-11T03:04:29;31.70;;;11.80;;
19251;SDS011;9760;50.944;5.304;2022-12-11T03:06:57;33.57;;;11.10;;
19251;SDS011;9760;50.944;5.304;2022-12-11T03:09:26;29.07;;;10.23;;
19251;SDS011;9760;50.944;5.304;2022-12-11T03:11:52;38.70;;;10.50;;
19251;SDS011;9760;50.944;5.304;2022-12-11T03:14:18;33.50;;;10.90;;
19251;SDS011;9760;50.944;5.304;2022-12-11T03:16:51;30.40;;;10.93;;
19251;SDS011;9760;50.944;5.304;2022-12-11T03:22:36;32.80;;;11.23;;
19251;SDS011;9760;50.944;5.304;2022-12-11T03:25:08;32.43;;;11.97;;
19251;SDS011;9760;50.944;5.304;2022-12-11T03:27:43;32.17;;;10.57;;
19251;SDS011;9760;50.944;5.304;2022-12-11T03:30:13;28.83;;;11.13;;
19251;SDS011;9760;50.944;5.304;2022-12-11T03:32:58;29.47;;;11.37;;
19251;SDS011;9760;50.944;5.304;2022-12-11T03:35:44;30.70;;;10.57;;
19251;SDS011;9760;50.944;5.304;2022-12-11T03:38:17;28.77;;;10.87;;
19251;SDS011;9760;50.944;5.304;2022-12-11T03:40:47;40.47;;;11.47;;
19251;SDS011;9760;50.944;5.304;2022-12-11T03:43:17;30.47;;;11.93;;
19251;SDS011;9760;50.944;5.304;2022-12-11T03:45:45;30.67;;;11.77;;
19251;SDS011;9760;50.944;5.304;2022-12-11T03:48:13;27.53;;;10.27;;
19251;SDS011;9760;50.944;5.304;2022-12-11T03:50:41;34.73;;;10.70;;
19251;SDS011;9760;50.944;5.304;2022-12-11T03:53:07;30.87;;;11.53;;
19251;SDS011;9760;50.944;5.304;2022-12-11T03:55:35;35.30;;;12.63;;
19251;SDS011;9760;50.944;5.304;2022-12-11T03:58:02;31.63;;;11.93;;
19251;SDS011;9760;50.944;5.304;2022-12-11T04:00:29;29.07;;;11.67;;
19251;SDS011;9760;50.944;5.304;2022-12-11T04:02:54;28.90;;;11.00;;
19251;SDS011;9760;50.944;5.304;2022-12-11T04:05:39;32.13;;;12.40;;
19251;SDS011;9760;50.944;5.304;2022-12-11T04:08:15;31.87;;;12.53;;
19251;SDS011;9760;50.944;5.304;2022-12-11T04:10:42;31.43;;;12.20;;
19251;SDS011;9760;50.944;5.304;2022-12-11T04:13:08;31.90;;;12.07;;
19251;SDS011;9760;50.944;5.304;2022-12-11T04:15:34;29.87;;;12.17;;
19251;SDS011;9760;50.944;5.304;2022-12-11T04:18:00;35.13;;;13.07;;
19251;SDS011;9760;50.944;5.304;2022-12-11T04:20:45;28.70;;;12.20;;
19251;SDS011;9760;50.944;5.304;2022-12-11T04:23:29;28.97;;;12.30;;
19251;SDS011;9760;50.944;5.304;2022-12-11T04:26:14;36.77;;;11.50;;
19251;SDS011;9760;50.944;5.304;2022-12-11T04:28:42;31.03;;;12.27;;
19251;SDS011;9760;50.944;5.304;2022-12-11T04:31:12;31.10;;;13.23;;
19251;SDS011;9760;50.944;5.304;2022-12-11T04:33:42;38.20;;;12.13;;
19251;SDS011;9760;50.944;5.304;2022-12-11T04:36:09;31.83;;;11.63;;
19251;SDS011;9760;50.944;5.304;2022-12-11T04:38:36;31.07;;;12.30;;
19251;SDS011;9760;50.944;5.304;2022-12-11T04:41:06;29.40;;;12.80;;
19251;SDS011;9760;50.944;5.304;2022-12-11T04:43:34;34.83;;;12.20;;
19251;SDS011;9760;50.944;5.304;2022-12-11T04:48:30;32.87;;;11.83;;
19251;SDS011;9760;50.944;5.304;2022-12-11T04:50:56;33.97;;;11.87;;
19251;SDS011;9760;50.944;5.304;2022-12-11T04:53:21;27.00;;;11.00;;
19251;SDS011;9760;50.944;5.304;2022-12-11T04:55:47;31.13;;;10.03;;
19251;SDS011;9760;50.944;5.304;2022-12-11T04:58:13;30.10;;;11.53;;
19251;SDS011;9760;50.944;5.304;2022-12-11T05:00:39;27.50;;;11.17;;
19251;SDS011;9760;50.944;5.304;2022-12-11T05:03:05;28.87;;;11.37;;
19251;SDS011;9760;50.944;5.304;2022-12-11T05:05:31;27.33;;;10.10;;
19251;SDS011;9760;50.944;5.304;2022-12-11T05:07:57;25.80;;;10.13;;
19251;SDS011;9760;50.944;5.304;2022-12-11T05:10:22;23.87;;;9.67;;
19251;SDS011;9760;50.944;5.304;2022-12-11T05:12:48;26.27;;;9.47;;
19251;SDS011;9760;50.944;5.304;2022-12-11T05:15:13;32.27;;;9.80;;
19251;SDS011;9760;50.944;5.304;2022-12-11T05:17:39;29.83;;;9.87;;
19251;SDS011;9760;50.944;5.304;2022-12-11T05:20:05;28.03;;;10.57;;
19251;SDS011;9760;50.944;5.304;2022-12-11T05:22:31;32.83;;;10.00;;
19251;SDS011;9760;50.944;5.304;2022-12-11T05:24:57;27.13;;;10.07;;
19251;SDS011;9760;50.944;5.304;2022-12-11T05:27:22;30.93;;;11.60;;
19251;SDS011;9760;50.944;5.304;2022-12-11T05:29:48;25.83;;;9.67;;
19251;SDS011;9760;50.944;5.304;2022-12-11T05:32:13;29.73;;;10.63;;
19251;SDS011;9760;50.944;5.304;2022-12-11T05:34:39;26.77;;;10.83;;
19251;SDS011;9760;50.944;5.304;2022-12-11T05:37:05;23.90;;;9.43;;
19251;SDS011;9760;50.944;5.304;2022-12-11T05:39:31;29.93;;;10.10;;
19251;SDS011;9760;50.944;5.304;2022-12-11T05:41:56;31.73;;;10.97;;
19251;SDS011;9760;50.944;5.304;2022-12-11T05:44:22;27.13;;;9.70;;
19251;SDS011;9760;50.944;5.304;2022-12-11T05:46:47;30.57;;;10.67;;
19251;SDS011;9760;50.944;5.304;2022-12-11T05:49:13;25.30;;;10.10;;
19251;SDS011;9760;50.944;5.304;2022-12-11T05:51:39;28.30;;;10.03;;
19251;SDS011;9760;50.944;5.304;2022-12-11T05:54:05;22.70;;;9.80;;
19251;SDS011;9760;50.944;5.304;2022-12-11T05:56:31;29.30;;;9.40;;
19251;SDS011;9760;50.944;5.304;2022-12-11T05:58:58;26.50;;;10.40;;
19251;SDS011;9760;50.944;5.304;2022-12-11T06:01:26;24.63;;;9.43;;
19251;SDS011;9760;50.944;5.304;2022-12-11T06:03:57;25.87;;;9.87;;
19251;SDS011;9760;50.944;5.304;2022-12-11T06:06:24;23.90;;;9.17;;
19251;SDS011;9760;50.944;5.304;2022-12-11T06:08:51;29.07;;;9.73;;
19251;SDS011;9760;50.944;5.304;2022-12-11T06:11:18;25.87;;;9.37;;
19251;SDS011;9760;50.944;5.304;2022-12-11T06:13:45;25.53;;;9.77;;
19251;SDS011;9760;50.944;5.304;2022-12-11T06:16:10;29.50;;;9.93;;
19251;SDS011;9760;50.944;5.304;2022-12-11T06:18:40;24.37;;;9.50;;
19251;SDS011;9760;50.944;5.304;2022-12-11T06:21:14;20.93;;;8.30;;
19251;SDS011;9760;50.944;5.304;2022-12-11T06:23:43;22.73;;;9.37;;
19251;SDS011;9760;50.944;5.304;2022-12-11T06:26:11;26.73;;;9.70;;
19251;SDS011;9760;50.944;5.304;2022-12-11T06:28:37;28.13;;;9.57;;
19251;SDS011;9760;50.944;5.304;2022-12-11T06:31:03;22.93;;;9.10;;
19251;SDS011;9760;50.944;5.304;2022-12-11T06:33:29;23.50;;;9.60;;
19251;SDS011;9760;50.944;5.304;2022-12-11T06:35:55;29.17;;;9.57;;
19251;SDS011;9760;50.944;5.304;2022-12-11T06:38:21;21.90;;;8.73;;
19251;SDS011;9760;50.944;5.304;2022-12-11T06:40:53;27.00;;;9.13;;
19251;SDS011;9760;50.944;5.304;2022-12-11T06:43:20;23.37;;;8.80;;
19251;SDS011;9760;50.944;5.304;2022-12-11T06:45:46;24.00;;;9.37;;
19251;SDS011;9760;50.944;5.304;2022-12-11T06:48:12;24.97;;;8.87;;
19251;SDS011;9760;50.944;5.304;2022-12-11T06:50:37;26.53;;;10.20;;
19251;SDS011;9760;50.944;5.304;2022-12-11T06:53:03;27.83;;;9.60;;
19251;SDS011;9760;50.944;5.304;2022-12-11T06:55:29;26.40;;;9.20;;
19251;SDS011;9760;50.944;5.304;2022-12-11T06:57:54;25.97;;;9.53;;
19251;SDS011;9760;50.944;5.304;2022-12-11T07:00:20;22.63;;;9.40;;
19251;SDS011;9760;50.944;5.304;2022-12-11T07:02:46;21.67;;;8.80;;
19251;SDS011;9760;50.944;5.304;2022-12-11T07:05:33;27.13;;;9.00;;
19251;SDS011;9760;50.944;5.304;2022-12-11T07:07:59;26.67;;;9.27;;
19251;SDS011;9760;50.944;5.304;2022-12-11T07:10:25;29.63;;;9.73;;
19251;SDS011;9760;50.944;5.304;2022-12-11T07:12:51;24.73;;;9.70;;
19251;SDS011;9760;50.944;5.304;2022-12-11T07:15:17;20.40;;;8.73;;
19251;SDS011;9760;50.944;5.304;2022-12-11T07:17:43;23.60;;;9.03;;
19251;SDS011;9760;50.944;5.304;2022-12-11T07:20:09;22.33;;;8.43;;
19251;SDS011;9760;50.944;5.304;2022-12-11T07:22:34;26.43;;;9.20;;
19251;SDS011;9760;50.944;5.304;2022-12-11T07:25:00;23.93;;;9.53;;
19251;SDS011;9760;50.944;5.304;2022-12-11T07:27:26;22.57;;;9.03;;
19251;SDS011;9760;50.944;5.304;2022-12-11T07:29:52;25.00;;;8.93;;
19251;SDS011;9760;50.944;5.304;2022-12-11T07:32:19;23.43;;;9.50;;
19251;SDS011;9760;50.944;5.304;2022-12-11T07:34:47;25.57;;;10.20;;
19251;SDS011;9760;50.944;5.304;2022-12-11T07:37:12;22.27;;;8.77;;
19251;SDS011;9760;50.944;5.304;2022-12-11T07:39:38;26.90;;;9.50;;
19251;SDS011;9760;50.944;5.304;2022-12-11T07:42:04;26.80;;;9.67;;
19251;SDS011;9760;50.944;5.304;2022-12-11T07:44:29;24.73;;;9.77;;
19251;SDS011;9760;50.944;5.304;2022-12-11T07:46:55;21.50;;;8.40;;
19251;SDS011;9760;50.944;5.304;2022-12-11T07:49:21;30.40;;;9.83;;
19251;SDS011;9760;50.944;5.304;2022-12-11T07:51:46;34.97;;;11.63;;
19251;SDS011;9760;50.944;5.304;2022-12-11T07:54:12;24.97;;;9.03;;
19251;SDS011;9760;50.944;5.304;2022-12-11T07:56:43;30.27;;;10.10;;
19251;SDS011;9760;50.944;5.304;2022-12-11T07:59:10;24.70;;;9.13;;
19251;SDS011;9760;50.944;5.304;2022-12-11T08:01:36;27.90;;;10.13;;
19251;SDS011;9760;50.944;5.304;2022-12-11T08:04:03;31.33;;;10.23;;
19251;SDS011;9760;50.944;5.304;2022-12-11T08:06:30;26.40;;;10.47;;
19251;SDS011;9760;50.944;5.304;2022-12-11T08:08:59;30.10;;;10.00;;
19251;SDS011;9760;50.944;5.304;2022-12-11T08:11:25;31.37;;;10.33;;
19251;SDS011;9760;50.944;5.304;2022-12-11T08:13:52;29.80;;;9.93;;
19251;SDS011;9760;50.944;5.304;2022-12-11T08:16:18;27.00;;;10.00;;
19251;SDS011;9760;50.944;5.304;2022-12-11T08:18:44;31.23;;;11.63;;
19251;SDS011;9760;50.944;5.304;2022-12-11T08:21:15;28.97;;;9.83;;
19251;SDS011;9760;50.944;5.304;2022-12-11T08:23:45;27.60;;;9.93;;
19251;SDS011;9760;50.944;5.304;2022-12-11T08:26:13;24.83;;;9.30;;
19251;SDS011;9760;50.944;5.304;2022-12-11T08:28:41;26.23;;;10.23;;
19251;SDS011;9760;50.944;5.304;2022-12-11T08:31:07;28.50;;;10.17;;
19251;SDS011;9760;50.944;5.304;2022-12-11T08:33:35;27.93;;;10.10;;
19251;SDS011;9760;50.944;5.304;2022-12-11T08:36:02;28.40;;;11.23;;
19251;SDS011;9760;50.944;5.304;2022-12-11T08:38:29;31.83;;;9.87;;
19251;SDS011;9760;50.944;5.304;2022-12-11T08:40:55;28.23;;;9.57;;
19251;SDS011;9760;50.944;5.304;2022-12-11T08:43:21;31.53;;;9.27;;
19251;SDS011;9760;50.944;5.304;2022-12-11T08:45:46;32.07;;;10.60;;
19251;SDS011;9760;50.944;5.304;2022-12-11T08:48:12;25.40;;;9.67;;
19251;SDS011;9760;50.944;5.304;2022-12-11T08:50:38;25.23;;;9.23;;
19251;SDS011;9760;50.944;5.304;2022-12-11T08:53:03;28.83;;;10.03;;
19251;SDS011;9760;50.944;5.304;2022-12-11T08:55:29;23.80;;;8.90;;
19251;SDS011;9760;50.944;5.304;2022-12-11T08:57:56;24.17;;;9.87;;
19251;SDS011;9760;50.944;5.304;2022-12-11T09:00:21;24.63;;;10.10;;
19251;SDS011;9760;50.944;5.304;2022-12-11T09:02:48;30.77;;;11.20;;
19251;SDS011;9760;50.944;5.304;2022-12-11T09:05:13;22.67;;;9.47;;
19251;SDS011;9760;50.944;5.304;2022-12-11T09:07:39;27.67;;;9.67;;
19251;SDS011;9760;50.944;5.304;2022-12-11T09:10:05;29.67;;;10.30;;
19251;SDS011;9760;50.944;5.304;2022-12-11T09:12:32;23.80;;;9.10;;
19251;SDS011;9760;50.944;5.304;2022-12-11T09:14:58;24.30;;;9.70;;
19251;SDS011;9760;50.944;5.304;2022-12-11T09:17:24;27.13;;;10.13;;
19251;SDS011;9760;50.944;5.304;2022-12-11T09:19:50;23.27;;;9.40;;
19251;SDS011;9760;50.944;5.304;2022-12-11T09:22:15;23.30;;;9.17;;
19251;SDS011;9760;50.944;5.304;2022-12-11T09:24:41;28.37;;;9.33;;
19251;SDS011;9760;50.944;5.304;2022-12-11T09:27:07;25.03;;;9.07;;
19251;SDS011;9760;50.944;5.304;2022-12-11T09:29:32;21.07;;;8.93;;
19251;SDS011;9760;50.944;5.304;2022-12-11T09:31:58;25.17;;;9.57;;
19251;SDS011;9760;50.944;5.304;2022-12-11T09:34:24;24.67;;;9.47;;
19251;SDS011;9760;50.944;5.304;2022-12-11T09:36:50;24.70;;;8.97;;
19251;SDS011;9760;50.944;5.304;2022-12-11T09:39:15;20.00;;;8.67;;
19251;SDS011;9760;50.944;5.304;2022-12-11T09:53:20;25.30;;;8.50;;
19251;SDS011;9760;50.944;5.304;2022-12-11T09:55:22;23.60;;;9.07;;
19251;SDS011;9760;50.944;5.304;2022-12-11T10:00:48;23.20;;;8.90;;
19251;SDS011;9760;50.944;5.304;2022-12-11T10:03:22;21.87;;;9.13;;
19251;SDS011;9760;50.944;5.304;2022-12-11T10:08:50;20.97;;;8.67;;
19251;SDS011;9760;50.944;5.304;2022-12-11T10:16:58;23.10;;;8.43;;
19251;SDS011;9760;50.944;5.304;2022-12-11T10:19:29;22.03;;;8.63;;
19251;SDS011;9760;50.944;5.304;2022-12-11T10:21:56;23.27;;;8.63;;
19251;SDS011;9760;50.944;5.304;2022-12-11T10:24:28;22.43;;;8.43;;
19251;SDS011;9760;50.944;5.304;2022-12-11T10:27:20;22.30;;;9.20;;
19251;SDS011;9760;50.944;5.304;2022-12-11T10:29:51;23.47;;;8.47;;
19251;SDS011;9760;50.944;5.304;2022-12-11T10:32:24;22.17;;;8.80;;
19251;SDS011;9760;50.944;5.304;2022-12-11T10:35:00;22.13;;;8.00;;
19251;SDS011;9760;50.944;5.304;2022-12-11T10:37:29;21.23;;;8.10;;
19251;SDS011;9760;50.944;5.304;2022-12-11T10:39:55;19.30;;;8.67;;
19251;SDS011;9760;50.944;5.304;2022-12-11T10:42:20;22.00;;;8.67;;
19251;SDS011;9760;50.944;5.304;2022-12-11T10:45:00;25.23;;;8.80;;
19251;SDS011;9760;50.944;5.304;2022-12-11T10:47:27;18.83;;;8.57;;
19251;SDS011;9760;50.944;5.304;2022-12-11T10:49:56;22.47;;;7.97;;
19251;SDS011;9760;50.944;5.304;2022-12-11T10:55:05;19.87;;;8.67;;
19251;SDS011;9760;50.944;5.304;2022-12-11T10:57:41;21.73;;;8.97;;
19251;SDS011;9760;50.944;5.304;2022-12-11T11:00:24;21.97;;;8.73;;
19251;SDS011;9760;50.944;5.304;2022-12-11T11:03:21;21.10;;;7.83;;
19251;SDS011;9760;50.944;5.304;2022-12-11T11:05:49;18.50;;;8.33;;
19251;SDS011;9760;50.944;5.304;2022-12-11T11:08:46;21.10;;;8.43;;
19251;SDS011;9760;50.944;5.304;2022-12-11T11:11:21;19.07;;;8.40;;
19251;SDS011;9760;50.944;5.304;2022-12-11T11:13:52;21.93;;;9.17;;
19251;SDS011;9760;50.944;5.304;2022-12-11T11:16:39;21.53;;;8.83;;
19251;SDS011;9760;50.944;5.304;2022-12-11T11:19:13;23.63;;;8.60;;
19251;SDS011;9760;50.944;5.304;2022-12-11T11:21:49;19.37;;;8.40;;
19251;SDS011;9760;50.944;5.304;2022-12-11T11:24:22;21.30;;;8.40;;
19251;SDS011;9760;50.944;5.304;2022-12-11T11:30:27;21.70;;;8.43;;
19251;SDS011;9760;50.944;5.304;2022-12-11T11:33:01;21.17;;;8.97;;
19251;SDS011;9760;50.944;5.304;2022-12-11T11:35:36;20.60;;;9.07;;
19251;SDS011;9760;50.944;5.304;2022-12-11T11:46:11;22.80;;;9.27;;
19251;SDS011;9760;50.944;5.304;2022-12-11T11:48:45;21.83;;;8.60;;
19251;SDS011;9760;50.944;5.304;2022-12-11T11:51:39;20.03;;;8.37;;
19251;SDS011;9760;50.944;5.304;2022-12-11T11:54:32;27.30;;;9.13;;
19251;SDS011;9760;50.944;5.304;2022-12-11T11:57:19;32.93;;;9.10;;
19251;SDS011;9760;50.944;5.304;2022-12-11T11:59:54;22.93;;;8.83;;
19251;SDS011;9760;50.944;5.304;2022-12-11T12:02:23;19.90;;;8.93;;
19251;SDS011;9760;50.944;5.304;2022-12-11T12:04:49;27.87;;;8.93;;
19251;SDS011;9760;50.944;5.304;2022-12-11T12:26:10;19.37;;;8.33;;
19251;SDS011;9760;50.944;5.304;2022-12-11T12:28:50;25.53;;;8.80;;
19251;SDS011;9760;50.944;5.304;2022-12-11T12:31:30;22.77;;;8.20;;
19251;SDS011;9760;50.944;5.304;2022-12-11T12:37:14;25.80;;;8.83;;
19251;SDS011;9760;50.944;5.304;2022-12-11T12:40:06;23.97;;;9.07;;
19251;SDS011;9760;50.944;5.304;2022-12-11T12:45:51;25.33;;;8.73;;
19251;SDS011;9760;50.944;5.304;2022-12-11T12:48:31;52.37;;;10.80;;
19251;SDS011;9760;50.944;5.304;2022-12-11T12:50:58;22.13;;;9.23;;
19251;SDS011;9760;50.944;5.304;2022-12-11T12:53:26;22.37;;;9.03;;
19251;SDS011;9760;50.944;5.304;2022-12-11T12:55:54;37.10;;;10.07;;
19251;SDS011;9760;50.944;5.304;2022-12-11T13:01:08;23.50;;;9.13;;
19251;SDS011;9760;50.944;5.304;2022-12-11T13:03:50;21.13;;;8.17;;
19251;SDS011;9760;50.944;5.304;2022-12-11T13:08:54;26.10;;;9.70;;
19251;SDS011;9760;50.944;5.304;2022-12-11T13:11:20;36.70;;;10.90;;
19251;SDS011;9760;50.944;5.304;2022-12-11T13:16:41;20.70;;;9.13;;
19251;SDS011;9760;50.944;5.304;2022-12-11T13:24:46;21.77;;;9.40;;
19251;SDS011;9760;50.944;5.304;2022-12-11T13:32:55;29.20;;;9.17;;
19251;SDS011;9760;50.944;5.304;2022-12-11T13:35:29;39.87;;;9.00;;
19251;SDS011;9760;50.944;5.304;2022-12-11T13:37:58;22.90;;;9.13;;
19251;SDS011;9760;50.944;5.304;2022-12-11T13:40:32;30.67;;;10.23;;
19251;SDS011;9760;50.944;5.304;2022-12-11T13:43:04;18.90;;;7.80;;
19251;SDS011;9760;50.944;5.304;2022-12-11T13:48:18;34.73;;;9.30;;
19251;SDS011;9760;50.944;5.304;2022-12-11T13:50:51;25.57;;;8.67;;
19251;SDS011;9760;50.944;5.304;2022-12-11T13:53:20;19.97;;;7.57;;
19251;SDS011;9760;50.944;5.304;2022-12-11T13:55:54;23.23;;;7.77;;
19251;SDS011;9760;50.944;5.304;2022-12-11T13:58:28;19.70;;;8.50;;
19251;SDS011;9760;50.944;5.304;2022-12-11T14:03:35;21.23;;;8.53;;
19251;SDS011;9760;50.944;5.304;2022-12-11T14:06:04;26.17;;;9.13;;
19251;SDS011;9760;50.944;5.304;2022-12-11T14:08:35;25.50;;;9.73;;
19251;SDS011;9760;50.944;5.304;2022-12-11T14:11:03;27.57;;;8.53;;
19251;SDS011;9760;50.944;5.304;2022-12-11T14:13:34;25.73;;;9.27;;
19251;SDS011;9760;50.944;5.304;2022-12-11T14:16:03;20.93;;;8.73;;
19251;SDS011;9760;50.944;5.304;2022-12-11T14:18:31;39.90;;;13.60;;
19251;SDS011;9760;50.944;5.304;2022-12-11T14:21:00;21.83;;;9.93;;
19251;SDS011;9760;50.944;5.304;2022-12-11T14:23:28;24.77;;;9.60;;
19251;SDS011;9760;50.944;5.304;2022-12-11T14:28:27;24.03;;;9.43;;
19251;SDS011;9760;50.944;5.304;2022-12-11T14:30:58;23.10;;;9.23;;
19251;SDS011;9760;50.944;5.304;2022-12-11T14:33:27;23.20;;;9.50;;
19251;SDS011;9760;50.944;5.304;2022-12-11T14:35:59;20.70;;;8.77;;
19251;SDS011;9760;50.944;5.304;2022-12-11T14:38:26;29.03;;;9.47;;
19251;SDS011;9760;50.944;5.304;2022-12-11T14:41:00;32.70;;;11.33;;
19251;SDS011;9760;50.944;5.304;2022-12-11T14:43:37;24.63;;;8.77;;
19251;SDS011;9760;50.944;5.304;2022-12-11T14:46:19;23.13;;;9.50;;
19251;SDS011;9760;50.944;5.304;2022-12-11T14:49:00;29.33;;;12.17;;
19251;SDS011;9760;50.944;5.304;2022-12-11T14:51:33;27.10;;;9.43;;
19251;SDS011;9760;50.944;5.304;2022-12-11T14:54:02;21.47;;;8.40;;
19251;SDS011;9760;50.944;5.304;2022-12-11T14:56:29;27.27;;;9.27;;
19251;SDS011;9760;50.944;5.304;2022-12-11T14:59:04;26.17;;;9.70;;
19251;SDS011;9760;50.944;5.304;2022-12-11T15:01:33;21.93;;;9.53;;
19251;SDS011;9760;50.944;5.304;2022-12-11T15:04:01;26.70;;;9.63;;
19251;SDS011;9760;50.944;5.304;2022-12-11T15:06:28;30.73;;;9.53;;
19251;SDS011;9760;50.944;5.304;2022-12-11T15:09:59;27.07;;;10.30;;
19251;SDS011;9760;50.944;5.304;2022-12-11T15:12:08;27.33;;;10.10;;
19251;SDS011;9760;50.944;5.304;2022-12-11T15:14:39;24.50;;;9.03;;
19251;SDS011;9760;50.944;5.304;2022-12-11T15:17:17;24.63;;;9.53;;
19251;SDS011;9760;50.944;5.304;2022-12-11T15:19:54;23.40;;;9.10;;
19251;SDS011;9760;50.944;5.304;2022-12-11T15:22:27;27.10;;;10.93;;
19251;SDS011;9760;50.944;5.304;2022-12-11T15:24:56;25.23;;;9.07;;
19251;SDS011;9760;50.944;5.304;2022-12-11T15:27:38;31.97;;;12.87;;
19251;SDS011;9760;50.944;5.304;2022-12-11T15:33:00;26.17;;;10.40;;
19251;SDS011;9760;50.944;5.304;2022-12-11T15:35:50;25.43;;;9.83;;
19251;SDS011;9760;50.944;5.304;2022-12-11T15:40:53;26.93;;;9.70;;
19251;SDS011;9760;50.944;5.304;2022-12-11T15:43:19;26.07;;;9.53;;
19251;SDS011;9760;50.944;5.304;2022-12-11T15:45:45;38.07;;;9.73;;
19251;SDS011;9760;50.944;5.304;2022-12-11T15:48:10;26.63;;;10.30;;
19251;SDS011;9760;50.944;5.304;2022-12-11T15:50:36;24.53;;;9.40;;
19251;SDS011;9760;50.944;5.304;2022-12-11T15:53:01;24.17;;;9.67;;
19251;SDS011;9760;50.944;5.304;2022-12-11T15:55:27;26.53;;;9.67;;
19251;SDS011;9760;50.944;5.304;2022-12-11T15:58:00;24.10;;;9.17;;
19251;SDS011;9760;50.944;5.304;2022-12-11T16:00:30;21.47;;;9.00;;
19251;SDS011;9760;50.944;5.304;2022-12-11T16:03:05;30.37;;;10.60;;
19251;SDS011;9760;50.944;5.304;2022-12-11T16:05:30;25.07;;;10.13;;
19251;SDS011;9760;50.944;5.304;2022-12-11T16:07:56;29.90;;;11.00;;
19251;SDS011;9760;50.944;5.304;2022-12-11T16:10:25;26.40;;;9.83;;
19251;SDS011;9760;50.944;5.304;2022-12-11T16:12:51;29.10;;;10.83;;
19251;SDS011;9760;50.944;5.304;2022-12-11T16:15:17;27.10;;;11.03;;
19251;SDS011;9760;50.944;5.304;2022-12-11T16:17:42;27.40;;;10.73;;
19251;SDS011;9760;50.944;5.304;2022-12-11T16:20:09;28.27;;;11.23;;
19251;SDS011;9760;50.944;5.304;2022-12-11T16:22:35;32.57;;;10.00;;
19251;SDS011;9760;50.944;5.304;2022-12-11T16:25:01;29.50;;;9.37;;
19251;SDS011;9760;50.944;5.304;2022-12-11T16:27:27;22.17;;;9.33;;
19251;SDS011;9760;50.944;5.304;2022-12-11T16:29:52;26.73;;;10.47;;
19251;SDS011;9760;50.944;5.304;2022-12-11T16:32:18;33.77;;;11.90;;
19251;SDS011;9760;50.944;5.304;2022-12-11T16:34:44;25.73;;;9.90;;
19251;SDS011;9760;50.944;5.304;2022-12-11T16:37:09;25.20;;;9.70;;
19251;SDS011;9760;50.944;5.304;2022-12-11T16:39:36;25.60;;;10.20;;
19251;SDS011;9760;50.944;5.304;2022-12-11T16:42:02;26.80;;;9.93;;
19251;SDS011;9760;50.944;5.304;2022-12-11T16:44:34;24.40;;;9.80;;
19251;SDS011;9760;50.944;5.304;2022-12-11T16:47:00;26.53;;;10.67;;
19251;SDS011;9760;50.944;5.304;2022-12-11T16:49:25;20.50;;;9.37;;
19251;SDS011;9760;50.944;5.304;2022-12-11T16:51:51;29.33;;;11.40;;
19251;SDS011;9760;50.944;5.304;2022-12-11T16:54:17;28.07;;;10.80;;
19251;SDS011;9760;50.944;5.304;2022-12-11T16:56:43;29.00;;;11.10;;
19251;SDS011;9760;50.944;5.304;2022-12-11T16:59:09;29.80;;;11.47;;